createdAt,value
2023-02-22T00:01:44.571Z,12157.59
2023-02-22T00:05:47.391Z,11932.91
2023-02-22T00:09:49.010Z,11834.88
2023-02-22T00:13:50.536Z,12073.84
2023-02-22T00:17:51.928Z,12073.84
2023-02-22T00:21:54.748Z,12047.28
2023-02-22T00:25:58.047Z,12016.66
2023-02-22T00:29:59.440Z,11977.84
2023-02-22T00:34:00.812Z,11975.81
2023-02-22T00:38:04.287Z,11908.41
2023-02-22T00:42:05.747Z,11943.13
2023-02-22T00:46:07.175Z,11947.19
2023-02-22T00:50:09.479Z,11941.06
2023-02-22T00:54:12.195Z,11951.28
2023-02-22T00:58:13.598Z,12022.78
2023-02-22T01:02:15.369Z,12022.78
2023-02-22T01:06:16.763Z,12026.88
2023-02-22T01:10:21.389Z,12033.00
2023-02-22T01:14:23.862Z,12018.69
2023-02-22T01:18:25.545Z,12041.16
2023-02-22T01:22:26.953Z,12020.75
2023-02-22T01:26:29.678Z,12053.41
2023-02-22T01:30:33.284Z,12014.59
2023-02-22T01:34:34.976Z,12020.75
2023-02-22T01:38:36.386Z,12008.47
2023-02-22T01:42:39.096Z,12004.41
2023-02-22T01:46:40.487Z,12045.25
2023-02-22T01:50:47.049Z,12022.78
2023-02-22T01:54:52.166Z,12049.34
2023-02-22T01:58:59.293Z,12137.16
2023-02-22T02:03:11.062Z,12175.97
2023-02-22T02:07:16.818Z,12186.19
2023-02-22T02:11:21.782Z,12165.75
2023-02-22T02:15:28.035Z,12129.00
2023-02-22T02:19:41.596Z,12133.09
2023-02-22T02:24:11.763Z,12102.44
2023-02-22T02:28:34.815Z,12104.47
2023-02-22T02:32:48.985Z,12098.34
2023-02-22T02:37:00.037Z,12110.63
2023-02-22T02:41:07.143Z,12073.84
2023-02-22T02:45:12.043Z,12098.34
2023-02-22T02:49:19.626Z,12069.75
2023-02-22T02:53:25.441Z,11998.28
2023-02-22T02:57:26.828Z,11996.22
2023-02-22T03:01:53.623Z,12004.41
2023-02-22T03:06:12.010Z,11994.19
2023-02-22T03:10:26.558Z,11994.19
2023-02-22T03:14:38.242Z,11914.53
2023-02-22T03:18:50.026Z,11892.06
2023-02-22T03:22:57.887Z,11877.75
2023-02-22T03:27:03.841Z,11830.78
2023-02-22T03:31:12.567Z,11710.28
2023-02-22T03:35:18.922Z,11440.69
2023-02-22T03:39:26.043Z,11401.88
2023-02-22T03:43:30.857Z,11373.28
2023-02-22T03:47:37.904Z,11314.06
2023-02-22T03:51:39.641Z,11177.22
2023-02-22T03:55:42.406Z,11140.47
2023-02-22T03:59:44.585Z,11134.34
2023-02-22T04:03:45.992Z,11113.94
2023-02-22T04:07:47.482Z,11126.19
2023-02-22T04:11:50.179Z,11103.72
2023-02-22T04:15:51.531Z,11091.47
2023-02-22T04:19:53.160Z,11083.28
2023-02-22T04:23:55.034Z,11085.34
2023-02-22T04:27:57.729Z,11042.44
2023-02-22T04:31:59.275Z,11011.81
2023-02-22T04:36:00.663Z,11060.81
2023-02-22T04:40:02.233Z,11056.75
2023-02-22T04:44:05.216Z,11022.03
2023-02-22T04:48:06.605Z,11022.03
2023-02-22T04:52:08.050Z,10999.56
2023-02-22T04:56:09.416Z,10983.22
2023-02-22T05:00:16.629Z,10936.25
2023-02-22T05:04:17.974Z,10926.06
2023-02-22T05:08:19.601Z,10934.22
2023-02-22T05:12:20.980Z,10907.69
2023-02-22T05:16:23.823Z,10881.13
2023-02-22T05:20:29.190Z,10840.28
2023-02-22T05:24:30.527Z,10875.00
2023-02-22T05:28:32.279Z,10850.50
2023-02-22T05:32:35.094Z,10870.91
2023-02-22T05:36:36.473Z,10903.59
2023-02-22T05:40:37.873Z,10846.41
2023-02-22T05:44:39.237Z,10832.13
2023-02-22T05:48:41.993Z,10758.59
2023-02-22T05:52:43.630Z,10697.34
2023-02-22T06:12:09.467Z,10654.47
2023-02-22T06:16:10.911Z,10666.72
2023-02-22T06:20:14.547Z,10638.13
2023-02-22T06:24:15.934Z,10619.75
2023-02-22T06:28:19.081Z,10670.81
2023-02-22T06:32:20.489Z,10656.50
2023-02-22T06:36:21.974Z,10638.13
2023-02-22T06:40:23.510Z,10611.59
2023-02-22T06:44:26.266Z,10599.34
2023-02-22T06:48:27.655Z,10591.19
2023-02-22T06:52:29.043Z,10638.13
2023-02-22T06:56:32.870Z,10601.38
2023-02-22T07:00:35.809Z,10597.31
2023-02-22T07:04:37.643Z,10564.63
2023-02-22T07:08:39.046Z,10774.94
2023-02-22T07:12:40.415Z,10909.72
2023-02-22T07:16:43.186Z,10966.91
2023-02-22T07:20:44.946Z,11169.06
2023-02-22T07:24:47.192Z,11267.09
2023-02-22T07:28:49.344Z,11346.72
2023-02-22T07:32:53.323Z,11401.88
2023-02-22T07:36:54.740Z,11459.06
2023-02-22T07:40:56.107Z,11573.44
2023-02-22T07:44:57.754Z,11714.34
2023-02-22T07:49:00.510Z,11849.16
2023-02-22T07:53:05.096Z,11941.06
2023-02-22T07:57:06.508Z,11820.56
2023-02-22T08:01:08.047Z,11883.87
2023-02-22T08:05:11.510Z,11990.09
2023-02-22T08:09:12.883Z,12110.63
2023-02-22T08:13:14.529Z,12173.94
2023-02-22T08:17:16.080Z,12276.06
2023-02-22T08:21:19.295Z,12323.06
2023-02-22T08:25:24.184Z,12474.22
2023-02-22T08:29:25.782Z,12527.34
2023-02-22T08:33:27.364Z,12511.00
2023-02-22T08:37:30.177Z,12464.00
2023-02-22T08:41:31.695Z,12521.22
2023-02-22T08:45:33.253Z,12598.84
2023-02-22T08:49:34.650Z,12600.88
2023-02-22T08:53:37.352Z,12690.78
2023-02-22T08:57:38.759Z,12788.84
2023-02-22T09:01:40.298Z,12784.75
2023-02-22T09:05:42.946Z,12844.00
2023-02-22T09:09:45.676Z,12870.56
2023-02-22T09:13:47.236Z,12937.97
2023-02-22T09:17:48.832Z,12991.09
2023-02-22T09:21:53.366Z,12989.06
2023-02-22T09:25:56.726Z,13103.47
2023-02-22T09:29:58.130Z,13156.59
2023-02-22T09:34:02.671Z,13285.31
2023-02-22T09:38:05.418Z,13289.41
2023-02-22T09:42:12.919Z,13373.19
2023-02-22T09:46:27.817Z,13430.41
2023-02-22T09:50:33.936Z,13487.59
2023-02-22T09:54:40.350Z,13518.25
2023-02-22T09:58:46.089Z,13561.16
2023-02-22T10:02:53.324Z,13571.38
2023-02-22T10:07:02.959Z,13581.59
2023-02-22T10:11:17.221Z,13595.91
2023-02-22T10:15:36.556Z,13669.47
2023-02-22T10:19:45.661Z,13681.72
2023-02-22T10:23:52.927Z,13691.94
2023-02-22T10:27:57.479Z,13724.66
2023-02-22T10:32:03.920Z,13777.78
2023-02-22T10:36:06.068Z,13816.59
2023-02-22T10:40:15.198Z,13882.00
2023-02-22T10:44:16.579Z,13973.97
2023-02-22T10:48:21.457Z,14067.97
2023-02-22T10:52:27.810Z,14123.16
2023-02-22T10:56:29.196Z,14251.91
2023-02-22T11:00:33.540Z,14390.88
2023-02-22T11:04:47.339Z,14411.31
2023-02-22T11:08:48.746Z,14458.34
2023-02-22T11:12:50.357Z,14441.97
2023-02-22T11:16:53.741Z,14558.50
2023-02-22T11:21:08.540Z,14627.97
2023-02-22T11:25:19.812Z,14685.22
2023-02-22T11:29:25.657Z,14801.72
2023-02-22T11:33:27.492Z,14791.50
2023-02-22T11:37:34.135Z,14832.38
2023-02-22T11:41:35.566Z,14881.44
2023-02-22T11:45:38.575Z,14879.41
2023-02-22T11:49:44.226Z,14957.06
2023-02-22T11:54:02.319Z,14995.91
2023-02-22T11:58:20.842Z,14991.81
2023-02-22T12:02:56.729Z,15002.03
2023-02-22T12:07:14.440Z,14995.91
2023-02-22T12:11:22.617Z,15020.44
2023-02-22T12:15:28.819Z,15024.53
2023-02-22T12:19:33.735Z,15061.31
2023-02-22T12:23:44.100Z,15040.88
2023-02-22T12:27:51.601Z,15063.38
2023-02-22T12:32:00.922Z,15134.91
2023-02-22T12:36:03.148Z,15081.78
2023-02-22T12:40:14.329Z,15190.13
2023-02-22T12:44:22.051Z,15079.72
2023-02-22T12:48:35.563Z,15079.72
2023-02-22T12:52:45.496Z,15212.59
2023-02-22T12:56:55.327Z,15069.50
2023-02-22T13:01:04.647Z,14981.59
2023-02-22T13:05:16.936Z,14997.97
2023-02-22T13:09:48.725Z,14961.16
2023-02-22T13:14:06.798Z,14969.34
2023-02-22T13:18:19.056Z,14983.66
2023-02-22T13:22:26.578Z,15008.19
2023-02-22T13:26:33.562Z,15053.16
2023-02-22T13:30:38.847Z,15032.72
2023-02-22T13:35:00.380Z,15038.84
2023-02-22T13:39:18.236Z,15124.69
2023-02-22T13:43:37.523Z,15012.28
2023-02-22T13:48:08.195Z,15020.44
2023-02-22T13:52:14.006Z,15053.16
2023-02-22T13:56:16.376Z,14930.50
2023-02-22T14:00:21.303Z,15053.16
2023-02-22T14:04:37.684Z,15006.13
2023-02-22T14:08:47.059Z,15049.06
2023-02-22T14:12:49.539Z,15030.66
2023-02-22T14:17:23.705Z,15004.09
2023-02-22T14:21:25.185Z,15057.25
2023-02-22T14:25:37.849Z,15040.88
2023-02-22T14:29:50.022Z,15004.09
2023-02-22T14:34:02.041Z,15083.81
2023-02-22T14:38:06.764Z,15051.09
2023-02-22T14:42:16.037Z,14993.88
2023-02-22T14:46:22.678Z,14950.94
2023-02-22T14:50:32.736Z,14969.34
2023-02-22T14:54:44.814Z,14926.41
2023-02-22T14:58:53.566Z,14881.44
2023-02-22T15:02:57.795Z,14885.53
2023-02-22T15:07:07.632Z,14877.34
2023-02-22T15:15:41.480Z,14922.31
2023-02-22T15:19:43.113Z,14877.34
2023-02-22T15:23:47.550Z,14877.34
2023-02-22T15:27:49.349Z,14852.81
2023-02-22T15:31:53.244Z,14842.59
2023-02-22T15:35:57.505Z,14879.41
2023-02-22T15:40:06.697Z,14883.50
2023-02-22T15:44:22.773Z,14883.50
2023-02-22T15:48:27.337Z,14830.34
2023-02-22T15:52:29.229Z,14805.81
2023-02-22T15:56:32.752Z,14762.88
2023-02-22T16:00:37.445Z,14746.53
2023-02-22T16:04:42.172Z,14746.53
2023-02-22T16:08:55.180Z,14738.34
2023-02-22T16:13:09.118Z,14756.75
2023-02-22T16:17:13.683Z,14748.56
2023-02-22T16:21:18.751Z,14666.81
2023-02-22T16:25:26.934Z,14681.13
2023-02-22T16:29:28.454Z,14666.81
2023-02-22T16:33:29.963Z,14619.81
2023-02-22T16:37:32.786Z,14675.00
2023-02-22T16:41:34.320Z,14642.28
2023-02-22T16:45:35.711Z,14662.72
2023-02-22T16:49:38.146Z,14550.31
2023-02-22T16:53:41.384Z,14595.28
2023-02-22T16:57:44.676Z,14650.47
2023-02-22T17:01:47.531Z,14578.94
2023-02-22T17:05:49.270Z,14619.81
2023-02-22T17:09:52.086Z,14548.25
2023-02-22T17:13:53.475Z,14548.25
2023-02-22T17:17:56.121Z,14540.09
2023-02-22T17:21:59.638Z,14554.41
2023-02-22T17:26:03.314Z,14552.34
2023-02-22T17:30:05.626Z,14540.09
2023-02-22T17:34:07.599Z,14511.47
2023-02-22T17:38:09.121Z,14517.59
2023-02-22T17:42:12.107Z,14491.03
2023-02-22T17:46:13.683Z,14521.69
2023-02-22T17:50:15.405Z,14468.56
2023-02-22T17:54:17.594Z,14474.69
2023-02-22T17:58:20.454Z,14448.13
2023-02-22T18:02:21.942Z,14435.84
2023-02-22T18:06:25.497Z,14419.50
2023-02-22T18:10:27.452Z,14411.31
2023-02-22T18:14:30.274Z,14380.66
2023-02-22T18:18:32.376Z,14399.06
2023-02-22T18:22:33.774Z,14368.41
2023-02-22T18:26:35.286Z,14358.19
2023-02-22T18:30:38.436Z,14360.22
2023-02-22T18:34:39.930Z,14325.47
2023-02-22T18:38:42.413Z,14305.03
2023-02-22T18:42:43.793Z,14307.09
2023-02-22T18:46:46.537Z,14303.00
2023-02-22T18:50:47.923Z,14329.56
2023-02-22T18:54:50.018Z,14305.03
2023-02-22T18:58:52.992Z,14307.09
2023-02-22T19:02:55.832Z,14292.78
2023-02-22T19:06:57.274Z,14309.13
2023-02-22T19:11:02.727Z,14270.31
2023-02-22T19:15:04.704Z,14284.59
2023-02-22T19:19:07.669Z,14313.22
2023-02-22T19:23:09.281Z,14266.22
2023-02-22T19:27:11.441Z,14300.97
2023-02-22T19:31:14.548Z,14323.44
2023-02-22T19:35:17.740Z,14280.53
2023-02-22T19:39:20.353Z,14264.16
2023-02-22T19:43:21.802Z,14286.66
2023-02-22T19:47:23.269Z,14296.88
2023-02-22T19:51:27.937Z,14251.91
2023-02-22T19:55:29.661Z,14282.56
2023-02-22T19:59:31.116Z,14272.34
2023-02-22T20:03:32.570Z,14282.56
2023-02-22T20:07:35.683Z,14262.13
2023-02-22T20:11:37.087Z,14239.66
2023-02-22T20:15:38.566Z,14256.00
2023-02-22T20:19:39.957Z,14225.34
2023-02-22T20:23:42.862Z,14233.50
2023-02-22T20:27:44.981Z,14213.06
2023-02-22T20:31:46.443Z,14229.44
2023-02-22T20:35:48.025Z,14192.63
2023-02-22T20:39:51.639Z,14188.56
2023-02-22T20:43:55.047Z,14219.22
2023-02-22T20:47:56.477Z,14202.84
2023-02-22T20:51:58.299Z,14170.16
2023-02-22T20:56:01.596Z,14170.16
2023-02-22T21:00:03.872Z,14153.81
2023-02-22T21:04:07.711Z,14102.72
2023-02-22T21:08:09.260Z,14092.50
2023-02-22T21:12:12.081Z,14123.16
2023-02-22T21:16:17.352Z,14114.97
2023-02-22T21:20:21.008Z,14059.78
2023-02-22T21:24:22.469Z,14053.66
2023-02-22T21:28:29.793Z,14070.00
2023-02-22T21:32:33.997Z,14061.84
2023-02-22T21:36:35.446Z,14033.22
2023-02-22T21:40:36.806Z,13971.91
2023-02-22T21:44:39.735Z,13955.56
2023-02-22T21:48:43.277Z,13941.25
2023-02-22T21:52:45.100Z,13933.09
2023-02-22T21:56:46.509Z,13924.91
2023-02-22T22:00:49.256Z,13896.31
2023-02-22T22:04:50.678Z,13922.88
2023-02-22T22:08:52.066Z,13892.22
2023-02-22T22:12:53.524Z,13884.03
2023-02-22T22:16:57.570Z,13839.09
2023-02-22T22:20:58.976Z,13773.69
2023-02-22T22:25:00.371Z,13741.00
2023-02-22T22:29:01.757Z,13749.16
2023-02-22T22:33:05.119Z,13724.66
2023-02-22T22:37:06.533Z,13706.25
2023-02-22T22:41:10.467Z,13683.78
2023-02-22T22:45:13.019Z,13618.38
2023-02-22T22:49:16.617Z,13593.88
2023-02-22T22:53:17.984Z,13530.53
2023-02-22T22:57:19.385Z,13542.78
2023-02-22T23:01:23.251Z,13540.72
2023-02-22T23:05:27.674Z,13495.78
2023-02-22T23:09:30.478Z,13418.13
2023-02-22T23:13:31.927Z,13426.31
2023-02-22T23:17:33.423Z,13393.63
2023-02-22T23:21:36.709Z,13375.22
2023-02-22T23:25:38.047Z,13428.34
2023-02-22T23:29:42.436Z,13426.31
2023-02-22T23:33:45.407Z,13440.59
2023-02-22T23:37:51.104Z,13430.41
2023-02-22T23:41:53.682Z,13377.25
2023-02-22T23:45:55.168Z,13315.97
2023-02-22T23:49:56.584Z,13279.19
2023-02-22T23:53:59.247Z,13295.53
2023-02-22T23:58:00.733Z,13289.41
